LiveATC.Net - Listen to live air traffic control over the Internet!


ICAO: ESSL  IATA: LPI   Airport: Linkoping City (Saab) Airport
City: Linkoping
Country: Sweden   Continent: Europe
ESSL METAR Weather: ESSL 250320Z AUTO 12002KT 0700 R11/1700N R29/P2000N BCFG NCD 12/12 Q1026
ESSL Flight Activity (FlightAware)

ESSL Twr/App/Control
Feed Status: DOWN
Last heard on: 2019-08-23 05:14:22 (1 days 22 hours 21 minutes ago)
ESSL Twr/App/Control Audio Archives
FacilityFrequency
Emergency/Guard121.500
Linkoping Tower118.800
Linkoping Tower (Secondary)123.400
Ostgota Control126.400
Ostgota Control127.350
Ostgota Control128.700
Ostgota Control132.950
Ostgota Control135.850
Ostgota Control (Malmen Sector)133.100
Ostgota Control/Sweden Control118.400

NOTICE

Unauthorized use prohibited. See LiveATC.net Terms of Service


Airport/ARTCC Code
Frequency Search
(e.g., 124.400, 128.75)
Site-wide search
 


Browse LiveATC Feeds
Top 50 LiveATC Feeds
LiveATC Feed Map
Bad Weather Areas

LiveATC FAQ
Offer LiveATC feed
Contact LiveATC.net
Press Inquiries

LiveATC on iPhone
LiveATC on Android

Windows Phone
Windows 8/10

LiveATC Mobile
(Mobile browser)

ATC Audio Archives
Interesting Recordings

LiveATC Forums


Home Page
About LiveATC.net
Make a Donation
Terms of Use
Privacy Policy

Canadian Air Freqs

AIRMETs/SIGMETs

FAA Airport Status
Nat'l Airspace Status
Arrival Demand Charts


Server Software By:
Icecast.org
Liquidsoap